sensor_id;sensor_type;location;lat;lon;timestamp;temperature;humidity
74488;DHT22;63019;51.080;13.642;2022-12-07T00:00:53;2.60;99.90
74488;DHT22;63019;51.080;13.642;2022-12-07T00:01:55;2.60;99.90
74488;DHT22;63019;51.080;13.642;2022-12-07T00:02:57;2.60;99.90
74488;DHT22;63019;51.080;13.642;2022-12-07T00:04:00;2.60;99.90
74488;DHT22;63019;51.080;13.642;2022-12-07T00:05:07;2.60;99.90
74488;DHT22;63019;51.080;13.642;2022-12-07T00:06:11;2.60;99.90
74488;DHT22;63019;51.080;13.642;2022-12-07T00:07:13;2.60;99.90
74488;DHT22;63019;51.080;13.642;2022-12-07T00:08:15;2.60;99.90
74488;DHT22;63019;51.080;13.642;2022-12-07T00:09:17;2.60;99.90
74488;DHT22;63019;51.080;13.642;2022-12-07T00:10:19;2.60;99.90
74488;DHT22;63019;51.080;13.642;2022-12-07T00:11:22;2.60;99.90
74488;DHT22;63019;51.080;13.642;2022-12-07T00:12:23;2.60;99.90
74488;DHT22;63019;51.080;13.642;2022-12-07T00:13:25;2.60;99.90
74488;DHT22;63019;51.080;13.642;2022-12-07T00:14:27;2.60;99.90
74488;DHT22;63019;51.080;13.642;2022-12-07T00:15:29;2.60;99.90
74488;DHT22;63019;51.080;13.642;2022-12-07T00:16:32;2.60;99.90
74488;DHT22;63019;51.080;13.642;2022-12-07T00:17:35;2.60;99.90
74488;DHT22;63019;51.080;13.642;2022-12-07T00:18:37;2.60;99.90
74488;DHT22;63019;51.080;13.642;2022-12-07T00:19:39;2.60;99.90
74488;DHT22;63019;51.080;13.642;2022-12-07T00:20:40;2.60;99.90
74488;DHT22;63019;51.080;13.642;2022-12-07T00:21:42;2.60;99.90
74488;DHT22;63019;51.080;13.642;2022-12-07T00:22:44;2.60;99.90
74488;DHT22;63019;51.080;13.642;2022-12-07T00:23:47;2.60;99.90
74488;DHT22;63019;51.080;13.642;2022-12-07T00:24:49;2.60;99.90
74488;DHT22;63019;51.080;13.642;2022-12-07T00:25:51;2.70;99.90
74488;DHT22;63019;51.080;13.642;2022-12-07T00:26:52;2.60;99.90
74488;DHT22;63019;51.080;13.642;2022-12-07T00:27:54;2.60;99.90
74488;DHT22;63019;51.080;13.642;2022-12-07T00:29:05;2.60;99.90
74488;DHT22;63019;51.080;13.642;2022-12-07T00:30:08;2.60;99.90
74488;DHT22;63019;51.080;13.642;2022-12-07T00:31:12;2.60;99.90
74488;DHT22;63019;51.080;13.642;2022-12-07T00:32:14;2.60;99.90
74488;DHT22;63019;51.080;13.642;2022-12-07T00:33:16;2.60;99.90
74488;DHT22;63019;51.080;13.642;2022-12-07T00:34:20;2.60;99.90
74488;DHT22;63019;51.080;13.642;2022-12-07T00:35:22;2.60;99.90
74488;DHT22;63019;51.080;13.642;2022-12-07T00:36:25;2.60;99.90
74488;DHT22;63019;51.080;13.642;2022-12-07T00:37:28;2.60;99.90
74488;DHT22;63019;51.080;13.642;2022-12-07T00:38:31;2.60;99.90
74488;DHT22;63019;51.080;13.642;2022-12-07T00:39:33;2.60;99.90
74488;DHT22;63019;51.080;13.642;2022-12-07T00:40:35;2.60;99.90
74488;DHT22;63019;51.080;13.642;2022-12-07T00:41:37;2.60;99.90
74488;DHT22;63019;51.080;13.642;2022-12-07T00:42:39;2.60;99.90
74488;DHT22;63019;51.080;13.642;2022-12-07T00:43:42;2.60;99.90
74488;DHT22;63019;51.080;13.642;2022-12-07T00:44:44;2.60;99.90
74488;DHT22;63019;51.080;13.642;2022-12-07T00:45:46;2.60;99.90
74488;DHT22;63019;51.080;13.642;2022-12-07T00:46:47;2.60;99.90
74488;DHT22;63019;51.080;13.642;2022-12-07T00:47:49;2.60;99.90
74488;DHT22;63019;51.080;13.642;2022-12-07T00:48:52;2.60;99.90
74488;DHT22;63019;51.080;13.642;2022-12-07T00:49:54;2.60;99.90
74488;DHT22;63019;51.080;13.642;2022-12-07T00:50:56;2.60;99.90
74488;DHT22;63019;51.080;13.642;2022-12-07T00:51:58;2.60;99.90
74488;DHT22;63019;51.080;13.642;2022-12-07T00:53:00;2.60;99.90
74488;DHT22;63019;51.080;13.642;2022-12-07T00:54:01;2.60;99.90
74488;DHT22;63019;51.080;13.642;2022-12-07T00:55:03;2.60;99.90
74488;DHT22;63019;51.080;13.642;2022-12-07T00:56:13;2.60;99.90
74488;DHT22;63019;51.080;13.642;2022-12-07T00:57:16;2.60;99.90
74488;DHT22;63019;51.080;13.642;2022-12-07T00:58:18;2.60;99.90
74488;DHT22;63019;51.080;13.642;2022-12-07T00:59:19;2.60;99.90
74488;DHT22;63019;51.080;13.642;2022-12-07T01:00:21;2.60;99.90
74488;DHT22;63019;51.080;13.642;2022-12-07T01:01:25;2.60;99.90
74488;DHT22;63019;51.080;13.642;2022-12-07T01:02:27;2.60;99.90
74488;DHT22;63019;51.080;13.642;2022-12-07T01:03:29;2.60;99.90
74488;DHT22;63019;51.080;13.642;2022-12-07T01:04:33;2.60;99.90
74488;DHT22;63019;51.080;13.642;2022-12-07T01:05:35;2.60;99.90
74488;DHT22;63019;51.080;13.642;2022-12-07T01:06:38;2.60;99.90
74488;DHT22;63019;51.080;13.642;2022-12-07T01:07:40;2.60;99.90
74488;DHT22;63019;51.080;13.642;2022-12-07T01:08:42;2.60;99.90
74488;DHT22;63019;51.080;13.642;2022-12-07T01:09:44;2.60;99.90
74488;DHT22;63019;51.080;13.642;2022-12-07T01:10:46;2.60;99.90
74488;DHT22;63019;51.080;13.642;2022-12-07T01:11:48;2.60;99.90
74488;DHT22;63019;51.080;13.642;2022-12-07T01:12:49;2.60;99.90
74488;DHT22;63019;51.080;13.642;2022-12-07T01:13:53;2.60;99.90
74488;DHT22;63019;51.080;13.642;2022-12-07T01:14:55;2.60;99.90
74488;DHT22;63019;51.080;13.642;2022-12-07T01:15:58;2.70;99.90
74488;DHT22;63019;51.080;13.642;2022-12-07T01:17:01;2.60;99.90
74488;DHT22;63019;51.080;13.642;2022-12-07T01:18:03;2.60;99.90
74488;DHT22;63019;51.080;13.642;2022-12-07T01:19:05;2.60;99.90
74488;DHT22;63019;51.080;13.642;2022-12-07T01:20:07;2.60;99.90
74488;DHT22;63019;51.080;13.642;2022-12-07T01:21:15;2.60;99.90
74488;DHT22;63019;51.080;13.642;2022-12-07T01:22:17;2.60;99.90
74488;DHT22;63019;51.080;13.642;2022-12-07T01:23:18;2.60;99.90
74488;DHT22;63019;51.080;13.642;2022-12-07T01:24:20;2.60;99.90
74488;DHT22;63019;51.080;13.642;2022-12-07T01:25:22;2.60;99.90
74488;DHT22;63019;51.080;13.642;2022-12-07T01:26:24;2.60;99.90
74488;DHT22;63019;51.080;13.642;2022-12-07T01:27:26;2.60;99.90
74488;DHT22;63019;51.080;13.642;2022-12-07T01:28:29;2.70;99.90
74488;DHT22;63019;51.080;13.642;2022-12-07T01:29:30;2.70;99.90
74488;DHT22;63019;51.080;13.642;2022-12-07T01:30:32;2.70;99.90
74488;DHT22;63019;51.080;13.642;2022-12-07T01:31:34;2.70;99.90
74488;DHT22;63019;51.080;13.642;2022-12-07T01:32:36;2.60;99.90
74488;DHT22;63019;51.080;13.642;2022-12-07T01:33:38;2.70;99.90
74488;DHT22;63019;51.080;13.642;2022-12-07T01:34:40;2.60;99.90
74488;DHT22;63019;51.080;13.642;2022-12-07T01:35:42;2.70;99.90
74488;DHT22;63019;51.080;13.642;2022-12-07T01:36:43;2.70;99.90
74488;DHT22;63019;51.080;13.642;2022-12-07T01:37:45;2.70;99.90
74488;DHT22;63019;51.080;13.642;2022-12-07T01:38:49;2.60;99.90
74488;DHT22;63019;51.080;13.642;2022-12-07T01:39:53;2.60;99.90
74488;DHT22;63019;51.080;13.642;2022-12-07T01:40:55;2.60;99.90
74488;DHT22;63019;51.080;13.642;2022-12-07T01:41:57;2.60;99.90
74488;DHT22;63019;51.080;13.642;2022-12-07T01:42:59;2.60;99.90
74488;DHT22;63019;51.080;13.642;2022-12-07T01:46:19;2.50;99.90
74488;DHT22;63019;51.080;13.642;2022-12-07T01:47:21;2.50;99.90
74488;DHT22;63019;51.080;13.642;2022-12-07T01:48:29;2.50;99.90
74488;DHT22;63019;51.080;13.642;2022-12-07T01:49:42;2.50;99.90
74488;DHT22;63019;51.080;13.642;2022-12-07T01:50:47;2.50;99.90
74488;DHT22;63019;51.080;13.642;2022-12-07T01:51:52;2.50;99.90
74488;DHT22;63019;51.080;13.642;2022-12-07T01:52:57;2.50;99.90
74488;DHT22;63019;51.080;13.642;2022-12-07T01:54:01;2.50;99.90
74488;DHT22;63019;51.080;13.642;2022-12-07T01:55:07;2.50;99.90
74488;DHT22;63019;51.080;13.642;2022-12-07T01:56:13;2.50;99.90
74488;DHT22;63019;51.080;13.642;2022-12-07T01:57:16;2.40;99.90
74488;DHT22;63019;51.080;13.642;2022-12-07T01:58:18;2.50;99.90
74488;DHT22;63019;51.080;13.642;2022-12-07T01:59:23;2.50;99.90
74488;DHT22;63019;51.080;13.642;2022-12-07T02:00:26;2.50;99.90
74488;DHT22;63019;51.080;13.642;2022-12-07T02:01:28;2.40;99.90
74488;DHT22;63019;51.080;13.642;2022-12-07T02:02:35;2.40;99.90
74488;DHT22;63019;51.080;13.642;2022-12-07T02:03:40;2.30;99.90
74488;DHT22;63019;51.080;13.642;2022-12-07T02:04:42;2.30;99.90
74488;DHT22;63019;51.080;13.642;2022-12-07T02:05:45;2.30;99.90
74488;DHT22;63019;51.080;13.642;2022-12-07T02:06:48;2.30;99.90
74488;DHT22;63019;51.080;13.642;2022-12-07T02:07:52;2.30;99.90
74488;DHT22;63019;51.080;13.642;2022-12-07T02:08:54;2.30;99.90
74488;DHT22;63019;51.080;13.642;2022-12-07T02:09:56;2.30;99.90
74488;DHT22;63019;51.080;13.642;2022-12-07T02:10:59;2.30;99.90
74488;DHT22;63019;51.080;13.642;2022-12-07T02:12:01;2.30;99.90
74488;DHT22;63019;51.080;13.642;2022-12-07T02:13:20;2.20;99.90
74488;DHT22;63019;51.080;13.642;2022-12-07T02:14:23;2.20;99.90
74488;DHT22;63019;51.080;13.642;2022-12-07T02:15:41;2.20;99.90
74488;DHT22;63019;51.080;13.642;2022-12-07T02:17:19;2.20;99.90
74488;DHT22;63019;51.080;13.642;2022-12-07T02:21:46;2.20;99.90
74488;DHT22;63019;51.080;13.642;2022-12-07T02:28:31;2.00;99.90
74488;DHT22;63019;51.080;13.642;2022-12-07T02:31:06;1.90;99.90
74488;DHT22;63019;51.080;13.642;2022-12-07T02:32:15;1.90;99.90
74488;DHT22;63019;51.080;13.642;2022-12-07T02:33:28;1.90;99.90
74488;DHT22;63019;51.080;13.642;2022-12-07T02:34:48;1.90;99.90
74488;DHT22;63019;51.080;13.642;2022-12-07T02:36:02;1.90;99.90
74488;DHT22;63019;51.080;13.642;2022-12-07T02:37:15;1.90;99.90
74488;DHT22;63019;51.080;13.642;2022-12-07T02:38:26;1.90;99.90
74488;DHT22;63019;51.080;13.642;2022-12-07T02:39:44;1.90;99.90
74488;DHT22;63019;51.080;13.642;2022-12-07T02:40:54;1.80;99.90
74488;DHT22;63019;51.080;13.642;2022-12-07T02:42:00;1.90;99.90
74488;DHT22;63019;51.080;13.642;2022-12-07T02:43:19;1.90;99.90
74488;DHT22;63019;51.080;13.642;2022-12-07T02:44:26;1.80;99.90
74488;DHT22;63019;51.080;13.642;2022-12-07T02:45:30;1.80;99.90
74488;DHT22;63019;51.080;13.642;2022-12-07T02:46:37;1.80;99.90
74488;DHT22;63019;51.080;13.642;2022-12-07T02:47:41;1.80;99.90
74488;DHT22;63019;51.080;13.642;2022-12-07T02:48:45;1.80;99.90
74488;DHT22;63019;51.080;13.642;2022-12-07T02:49:46;1.80;99.90
74488;DHT22;63019;51.080;13.642;2022-12-07T02:50:49;1.80;99.90
74488;DHT22;63019;51.080;13.642;2022-12-07T02:51:52;1.90;99.90
74488;DHT22;63019;51.080;13.642;2022-12-07T02:52:54;1.80;99.90
74488;DHT22;63019;51.080;13.642;2022-12-07T02:53:57;1.90;99.90
74488;DHT22;63019;51.080;13.642;2022-12-07T02:54:59;1.90;99.90
74488;DHT22;63019;51.080;13.642;2022-12-07T02:58:50;1.90;99.90
74488;DHT22;63019;51.080;13.642;2022-12-07T03:00:09;1.90;99.90
74488;DHT22;63019;51.080;13.642;2022-12-07T03:03:04;1.90;99.90
74488;DHT22;63019;51.080;13.642;2022-12-07T03:04:19;1.90;99.90
74488;DHT22;63019;51.080;13.642;2022-12-07T03:07:05;1.90;99.90
74488;DHT22;63019;51.080;13.642;2022-12-07T03:10:12;2.00;99.90
74488;DHT22;63019;51.080;13.642;2022-12-07T03:11:27;2.00;99.90
74488;DHT22;63019;51.080;13.642;2022-12-07T03:14:01;2.00;99.90
74488;DHT22;63019;51.080;13.642;2022-12-07T03:15:12;2.00;99.90
74488;DHT22;63019;51.080;13.642;2022-12-07T03:17:25;1.90;99.90
74488;DHT22;63019;51.080;13.642;2022-12-07T03:18:32;2.00;99.90
74488;DHT22;63019;51.080;13.642;2022-12-07T03:19:36;2.00;99.90
74488;DHT22;63019;51.080;13.642;2022-12-07T03:20:41;2.00;99.90
74488;DHT22;63019;51.080;13.642;2022-12-07T03:21:55;2.00;99.90
74488;DHT22;63019;51.080;13.642;2022-12-07T03:22:59;2.00;99.90
74488;DHT22;63019;51.080;13.642;2022-12-07T03:24:05;2.00;99.90
74488;DHT22;63019;51.080;13.642;2022-12-07T03:25:11;2.10;99.90
74488;DHT22;63019;51.080;13.642;2022-12-07T03:26:15;2.10;99.90
74488;DHT22;63019;51.080;13.642;2022-12-07T03:27:25;2.10;99.90
74488;DHT22;63019;51.080;13.642;2022-12-07T03:28:34;2.00;99.90
74488;DHT22;63019;51.080;13.642;2022-12-07T03:29:43;2.00;99.90
74488;DHT22;63019;51.080;13.642;2022-12-07T03:30:51;2.00;99.90
74488;DHT22;63019;51.080;13.642;2022-12-07T03:32:03;2.00;99.90
74488;DHT22;63019;51.080;13.642;2022-12-07T03:33:20;2.00;99.90
74488;DHT22;63019;51.080;13.642;2022-12-07T03:34:29;2.00;99.90
74488;DHT22;63019;51.080;13.642;2022-12-07T03:35:36;1.90;99.90
74488;DHT22;63019;51.080;13.642;2022-12-07T03:36:47;1.90;99.90
74488;DHT22;63019;51.080;13.642;2022-12-07T03:37:57;2.00;99.90
74488;DHT22;63019;51.080;13.642;2022-12-07T03:39:19;1.90;99.90
74488;DHT22;63019;51.080;13.642;2022-12-07T03:41:47;1.90;99.90
74488;DHT22;63019;51.080;13.642;2022-12-07T03:42:49;2.00;99.90
74488;DHT22;63019;51.080;13.642;2022-12-07T03:43:56;1.90;99.90
74488;DHT22;63019;51.080;13.642;2022-12-07T03:44:59;1.90;99.90
74488;DHT22;63019;51.080;13.642;2022-12-07T03:46:43;1.90;99.90
74488;DHT22;63019;51.080;13.642;2022-12-07T03:48:22;1.80;99.90
74488;DHT22;63019;51.080;13.642;2022-12-07T03:50:54;1.80;99.90
74488;DHT22;63019;51.080;13.642;2022-12-07T03:52:01;1.80;99.90
74488;DHT22;63019;51.080;13.642;2022-12-07T03:53:11;1.80;99.90
74488;DHT22;63019;51.080;13.642;2022-12-07T03:54:18;1.80;99.90
74488;DHT22;63019;51.080;13.642;2022-12-07T03:55:35;1.80;99.90
74488;DHT22;63019;51.080;13.642;2022-12-07T03:56:40;1.80;99.90
74488;DHT22;63019;51.080;13.642;2022-12-07T03:57:43;1.70;99.90
74488;DHT22;63019;51.080;13.642;2022-12-07T03:58:46;1.80;99.90
74488;DHT22;63019;51.080;13.642;2022-12-07T03:59:48;1.80;99.90
74488;DHT22;63019;51.080;13.642;2022-12-07T04:00:52;1.80;99.90
74488;DHT22;63019;51.080;13.642;2022-12-07T04:01:57;1.80;99.90
74488;DHT22;63019;51.080;13.642;2022-12-07T04:03:03;1.80;99.90
74488;DHT22;63019;51.080;13.642;2022-12-07T04:04:05;1.80;99.90
74488;DHT22;63019;51.080;13.642;2022-12-07T04:05:07;1.80;99.90
74488;DHT22;63019;51.080;13.642;2022-12-07T04:06:09;1.80;99.90
74488;DHT22;63019;51.080;13.642;2022-12-07T04:07:11;1.80;99.90
74488;DHT22;63019;51.080;13.642;2022-12-07T04:08:14;1.70;99.90
74488;DHT22;63019;51.080;13.642;2022-12-07T04:09:16;1.70;99.90
74488;DHT22;63019;51.080;13.642;2022-12-07T04:10:19;1.70;99.90
74488;DHT22;63019;51.080;13.642;2022-12-07T04:11:20;1.70;99.90
74488;DHT22;63019;51.080;13.642;2022-12-07T04:12:23;1.70;99.90
74488;DHT22;63019;51.080;13.642;2022-12-07T04:13:24;1.70;99.90
74488;DHT22;63019;51.080;13.642;2022-12-07T04:14:26;1.70;99.90
74488;DHT22;63019;51.080;13.642;2022-12-07T04:15:28;1.70;99.90
74488;DHT22;63019;51.080;13.642;2022-12-07T04:16:30;1.70;99.90
74488;DHT22;63019;51.080;13.642;2022-12-07T04:17:31;1.70;99.90
74488;DHT22;63019;51.080;13.642;2022-12-07T04:18:33;1.70;99.90
74488;DHT22;63019;51.080;13.642;2022-12-07T04:19:35;1.70;99.90
74488;DHT22;63019;51.080;13.642;2022-12-07T04:20:37;1.70;99.90
74488;DHT22;63019;51.080;13.642;2022-12-07T04:21:39;1.80;99.90
74488;DHT22;63019;51.080;13.642;2022-12-07T04:22:41;1.80;99.90
74488;DHT22;63019;51.080;13.642;2022-12-07T04:23:43;1.70;99.90
74488;DHT22;63019;51.080;13.642;2022-12-07T04:24:44;1.70;99.90
74488;DHT22;63019;51.080;13.642;2022-12-07T04:25:48;1.70;99.90
74488;DHT22;63019;51.080;13.642;2022-12-07T04:26:50;1.70;99.90
74488;DHT22;63019;51.080;13.642;2022-12-07T04:27:52;1.80;99.90
74488;DHT22;63019;51.080;13.642;2022-12-07T04:28:53;1.80;99.90
74488;DHT22;63019;51.080;13.642;2022-12-07T04:29:55;1.70;99.90
74488;DHT22;63019;51.080;13.642;2022-12-07T04:30:57;1.70;99.90
74488;DHT22;63019;51.080;13.642;2022-12-07T04:31:59;1.70;99.90
74488;DHT22;63019;51.080;13.642;2022-12-07T04:33:01;1.70;99.90
74488;DHT22;63019;51.080;13.642;2022-12-07T04:34:03;1.70;99.90
74488;DHT22;63019;51.080;13.642;2022-12-07T04:35:05;1.70;99.90
74488;DHT22;63019;51.080;13.642;2022-12-07T04:36:07;1.70;99.90
74488;DHT22;63019;51.080;13.642;2022-12-07T04:37:09;1.70;99.90
74488;DHT22;63019;51.080;13.642;2022-12-07T04:38:11;1.70;99.90
74488;DHT22;63019;51.080;13.642;2022-12-07T04:39:25;1.70;99.90
74488;DHT22;63019;51.080;13.642;2022-12-07T04:40:27;1.70;99.90
74488;DHT22;63019;51.080;13.642;2022-12-07T04:41:29;1.70;99.90
74488;DHT22;63019;51.080;13.642;2022-12-07T04:42:30;1.70;99.90
74488;DHT22;63019;51.080;13.642;2022-12-07T04:43:33;1.60;99.90
74488;DHT22;63019;51.080;13.642;2022-12-07T04:44:34;1.60;99.90
74488;DHT22;63019;51.080;13.642;2022-12-07T04:45:36;1.70;99.90
74488;DHT22;63019;51.080;13.642;2022-12-07T04:46:38;1.70;99.90
74488;DHT22;63019;51.080;13.642;2022-12-07T04:47:40;1.70;99.90
74488;DHT22;63019;51.080;13.642;2022-12-07T04:48:42;1.70;99.90
74488;DHT22;63019;51.080;13.642;2022-12-07T04:49:43;1.70;99.90
74488;DHT22;63019;51.080;13.642;2022-12-07T04:50:48;1.60;99.90
74488;DHT22;63019;51.080;13.642;2022-12-07T04:51:51;1.60;99.90
74488;DHT22;63019;51.080;13.642;2022-12-07T04:52:53;1.60;99.90
74488;DHT22;63019;51.080;13.642;2022-12-07T04:53:55;1.60;99.90
74488;DHT22;63019;51.080;13.642;2022-12-07T04:54:57;1.60;99.90
74488;DHT22;63019;51.080;13.642;2022-12-07T04:55:59;1.60;99.90
74488;DHT22;63019;51.080;13.642;2022-12-07T04:57:02;1.60;99.90
74488;DHT22;63019;51.080;13.642;2022-12-07T04:58:04;1.60;99.90
74488;DHT22;63019;51.080;13.642;2022-12-07T04:59:06;1.60;99.90
74488;DHT22;63019;51.080;13.642;2022-12-07T05:00:08;1.60;99.90
74488;DHT22;63019;51.080;13.642;2022-12-07T05:01:10;1.60;99.90
74488;DHT22;63019;51.080;13.642;2022-12-07T05:02:12;1.60;99.90
74488;DHT22;63019;51.080;13.642;2022-12-07T05:03:14;1.60;99.90
74488;DHT22;63019;51.080;13.642;2022-12-07T05:04:16;1.60;99.90
74488;DHT22;63019;51.080;13.642;2022-12-07T05:05:19;1.60;99.90
74488;DHT22;63019;51.080;13.642;2022-12-07T05:06:21;1.60;99.90
74488;DHT22;63019;51.080;13.642;2022-12-07T05:07:22;1.60;99.90
74488;DHT22;63019;51.080;13.642;2022-12-07T05:08:24;1.60;99.90
74488;DHT22;63019;51.080;13.642;2022-12-07T05:09:26;1.60;99.90
74488;DHT22;63019;51.080;13.642;2022-12-07T05:10:28;1.60;99.90
74488;DHT22;63019;51.080;13.642;2022-12-07T05:11:29;1.60;99.90
74488;DHT22;63019;51.080;13.642;2022-12-07T05:12:41;1.60;99.90
74488;DHT22;63019;51.080;13.642;2022-12-07T05:13:42;1.60;99.90
74488;DHT22;63019;51.080;13.642;2022-12-07T05:14:44;1.60;99.90
74488;DHT22;63019;51.080;13.642;2022-12-07T05:15:47;1.60;99.90
74488;DHT22;63019;51.080;13.642;2022-12-07T05:16:50;1.60;99.90
74488;DHT22;63019;51.080;13.642;2022-12-07T05:17:52;1.60;99.90
74488;DHT22;63019;51.080;13.642;2022-12-07T05:18:54;1.60;99.90
74488;DHT22;63019;51.080;13.642;2022-12-07T05:19:56;1.60;99.90
74488;DHT22;63019;51.080;13.642;2022-12-07T05:20:58;1.60;99.90
74488;DHT22;63019;51.080;13.642;2022-12-07T05:21:59;1.70;99.90
74488;DHT22;63019;51.080;13.642;2022-12-07T05:23:01;1.70;99.90
74488;DHT22;63019;51.080;13.642;2022-12-07T05:24:03;1.70;99.90
74488;DHT22;63019;51.080;13.642;2022-12-07T05:25:06;1.70;99.90
74488;DHT22;63019;51.080;13.642;2022-12-07T05:26:08;1.70;99.90
74488;DHT22;63019;51.080;13.642;2022-12-07T05:27:09;1.70;99.90
74488;DHT22;63019;51.080;13.642;2022-12-07T05:28:11;1.70;99.90
74488;DHT22;63019;51.080;13.642;2022-12-07T05:29:15;1.80;99.90
74488;DHT22;63019;51.080;13.642;2022-12-07T05:30:17;1.80;99.90
74488;DHT22;63019;51.080;13.642;2022-12-07T05:31:19;1.80;99.90
74488;DHT22;63019;51.080;13.642;2022-12-07T05:32:20;1.80;99.90
74488;DHT22;63019;51.080;13.642;2022-12-07T05:33:22;1.90;99.90
74488;DHT22;63019;51.080;13.642;2022-12-07T05:34:24;1.90;99.90
74488;DHT22;63019;51.080;13.642;2022-12-07T05:35:26;1.90;99.90
74488;DHT22;63019;51.080;13.642;2022-12-07T05:36:28;1.90;99.90
74488;DHT22;63019;51.080;13.642;2022-12-07T05:37:30;1.90;99.90
74488;DHT22;63019;51.080;13.642;2022-12-07T05:38:32;1.90;99.90
74488;DHT22;63019;51.080;13.642;2022-12-07T05:39:34;1.90;99.90
74488;DHT22;63019;51.080;13.642;2022-12-07T05:40:36;1.90;99.90
74488;DHT22;63019;51.080;13.642;2022-12-07T05:41:38;1.90;99.90
74488;DHT22;63019;51.080;13.642;2022-12-07T05:42:58;1.90;99.90
74488;DHT22;63019;51.080;13.642;2022-12-07T05:44:05;1.90;99.90
74488;DHT22;63019;51.080;13.642;2022-12-07T05:45:08;2.00;99.90
74488;DHT22;63019;51.080;13.642;2022-12-07T05:46:10;2.00;99.90
74488;DHT22;63019;51.080;13.642;2022-12-07T05:47:13;2.00;99.90
74488;DHT22;63019;51.080;13.642;2022-12-07T05:48:15;2.00;99.90
74488;DHT22;63019;51.080;13.642;2022-12-07T05:49:17;2.00;99.90
74488;DHT22;63019;51.080;13.642;2022-12-07T05:50:19;2.00;99.90
74488;DHT22;63019;51.080;13.642;2022-12-07T05:51:21;2.00;99.90
74488;DHT22;63019;51.080;13.642;2022-12-07T05:52:23;2.00;99.90
74488;DHT22;63019;51.080;13.642;2022-12-07T05:53:25;2.00;99.90
74488;DHT22;63019;51.080;13.642;2022-12-07T05:54:27;2.00;99.90
74488;DHT22;63019;51.080;13.642;2022-12-07T05:55:28;2.00;99.90
74488;DHT22;63019;51.080;13.642;2022-12-07T05:56:30;2.00;99.90
74488;DHT22;63019;51.080;13.642;2022-12-07T05:57:32;2.00;99.90
74488;DHT22;63019;51.080;13.642;2022-12-07T05:58:34;2.00;99.90
74488;DHT22;63019;51.080;13.642;2022-12-07T05:59:54;2.00;99.90
74488;DHT22;63019;51.080;13.642;2022-12-07T06:00:56;2.00;99.90
74488;DHT22;63019;51.080;13.642;2022-12-07T06:02:00;2.10;99.90
74488;DHT22;63019;51.080;13.642;2022-12-07T06:03:03;2.10;99.90
74488;DHT22;63019;51.080;13.642;2022-12-07T06:04:04;2.10;99.90
74488;DHT22;63019;51.080;13.642;2022-12-07T06:05:07;2.20;99.90
74488;DHT22;63019;51.080;13.642;2022-12-07T06:06:08;2.20;99.90
74488;DHT22;63019;51.080;13.642;2022-12-07T06:07:12;2.20;99.90
74488;DHT22;63019;51.080;13.642;2022-12-07T06:08:14;2.20;99.90
74488;DHT22;63019;51.080;13.642;2022-12-07T06:09:17;2.30;99.90
74488;DHT22;63019;51.080;13.642;2022-12-07T06:10:19;2.30;99.90
74488;DHT22;63019;51.080;13.642;2022-12-07T06:11:21;2.30;99.90
74488;DHT22;63019;51.080;13.642;2022-12-07T06:12:42;2.30;99.90
74488;DHT22;63019;51.080;13.642;2022-12-07T06:13:44;2.30;99.90
74488;DHT22;63019;51.080;13.642;2022-12-07T06:14:48;2.30;99.90
74488;DHT22;63019;51.080;13.642;2022-12-07T06:15:50;2.30;99.90
74488;DHT22;63019;51.080;13.642;2022-12-07T06:16:51;2.30;99.90
74488;DHT22;63019;51.080;13.642;2022-12-07T06:17:53;2.30;99.90
74488;DHT22;63019;51.080;13.642;2022-12-07T06:18:55;2.30;99.90
74488;DHT22;63019;51.080;13.642;2022-12-07T06:19:57;2.30;99.90
74488;DHT22;63019;51.080;13.642;2022-12-07T06:20:59;2.30;99.90
74488;DHT22;63019;51.080;13.642;2022-12-07T06:22:01;2.30;99.90
74488;DHT22;63019;51.080;13.642;2022-12-07T06:23:03;2.30;99.90
74488;DHT22;63019;51.080;13.642;2022-12-07T06:24:05;2.30;99.90
74488;DHT22;63019;51.080;13.642;2022-12-07T06:25:07;2.30;99.90
74488;DHT22;63019;51.080;13.642;2022-12-07T06:26:10;2.30;99.90
74488;DHT22;63019;51.080;13.642;2022-12-07T06:27:12;2.30;99.90
74488;DHT22;63019;51.080;13.642;2022-12-07T06:28:14;2.30;99.90
74488;DHT22;63019;51.080;13.642;2022-12-07T06:29:16;2.30;99.90
74488;DHT22;63019;51.080;13.642;2022-12-07T06:30:18;2.40;99.90
74488;DHT22;63019;51.080;13.642;2022-12-07T06:31:20;2.30;99.90
74488;DHT22;63019;51.080;13.642;2022-12-07T06:32:22;2.40;99.90
74488;DHT22;63019;51.080;13.642;2022-12-07T06:33:23;2.40;99.90
74488;DHT22;63019;51.080;13.642;2022-12-07T06:34:26;2.40;99.90
74488;DHT22;63019;51.080;13.642;2022-12-07T06:35:28;2.40;99.90
74488;DHT22;63019;51.080;13.642;2022-12-07T06:36:30;2.40;99.90
74488;DHT22;63019;51.080;13.642;2022-12-07T06:37:31;2.40;99.90
74488;DHT22;63019;51.080;13.642;2022-12-07T06:38:33;2.40;99.90
74488;DHT22;63019;51.080;13.642;2022-12-07T06:39:35;2.40;99.90
74488;DHT22;63019;51.080;13.642;2022-12-07T06:40:37;2.40;99.90
74488;DHT22;63019;51.080;13.642;2022-12-07T06:41:39;2.40;99.90
74488;DHT22;63019;51.080;13.642;2022-12-07T06:42:41;2.40;99.90
74488;DHT22;63019;51.080;13.642;2022-12-07T06:43:43;2.40;99.90
74488;DHT22;63019;51.080;13.642;2022-12-07T06:44:44;2.30;99.90
74488;DHT22;63019;51.080;13.642;2022-12-07T06:45:46;2.30;99.90
74488;DHT22;63019;51.080;13.642;2022-12-07T06:46:49;2.30;99.90
74488;DHT22;63019;51.080;13.642;2022-12-07T06:47:51;2.40;99.90
74488;DHT22;63019;51.080;13.642;2022-12-07T06:48:53;2.30;99.90
74488;DHT22;63019;51.080;13.642;2022-12-07T06:49:55;2.30;99.90
74488;DHT22;63019;51.080;13.642;2022-12-07T06:50:57;2.30;99.90
74488;DHT22;63019;51.080;13.642;2022-12-07T06:51:59;2.30;99.90
74488;DHT22;63019;51.080;13.642;2022-12-07T06:53:00;2.30;99.90
74488;DHT22;63019;51.080;13.642;2022-12-07T06:54:03;2.30;99.90
74488;DHT22;63019;51.080;13.642;2022-12-07T06:55:06;2.30;99.90
74488;DHT22;63019;51.080;13.642;2022-12-07T06:56:07;2.30;99.90
74488;DHT22;63019;51.080;13.642;2022-12-07T06:57:09;2.30;99.90
74488;DHT22;63019;51.080;13.642;2022-12-07T06:58:11;2.30;99.90
74488;DHT22;63019;51.080;13.642;2022-12-07T06:59:13;2.30;99.90
74488;DHT22;63019;51.080;13.642;2022-12-07T07:00:15;2.30;99.90
74488;DHT22;63019;51.080;13.642;2022-12-07T07:01:22;2.30;99.90
74488;DHT22;63019;51.080;13.642;2022-12-07T07:02:24;2.30;99.90
74488;DHT22;63019;51.080;13.642;2022-12-07T07:03:26;2.20;99.90
74488;DHT22;63019;51.080;13.642;2022-12-07T07:04:28;2.20;99.90
74488;DHT22;63019;51.080;13.642;2022-12-07T07:05:30;2.20;99.90
74488;DHT22;63019;51.080;13.642;2022-12-07T07:06:32;2.20;99.90
74488;DHT22;63019;51.080;13.642;2022-12-07T07:07:33;2.20;99.90
74488;DHT22;63019;51.080;13.642;2022-12-07T07:08:55;2.10;99.90
74488;DHT22;63019;51.080;13.642;2022-12-07T07:09:57;2.10;99.90
74488;DHT22;63019;51.080;13.642;2022-12-07T07:10:59;2.10;99.90